Time;durP1;ratioP1;P1;durP2;ratioP2;P2;SDS_P1;SDS_P2;PMS_P1;PMS_P2;Temp;Humidity;BMP_temperature;BMP_pressure;BME280_temperature;BME280_humidity;BME280_pressure;Samples;Min_cycle;Max_cycle;Signal;HPM_P1;HPM_P2
2022/04/18 00:01:53;;;;;;;15.82;9.73;;;9.10;68.70;;;;;;5070042;28;20174;-64
2022/04/18 00:04:19;;;;;;;16.98;9.68;;;9.20;69.50;;;;;;5070249;28;20036;-63
2022/04/18 00:06:44;;;;;;;16.88;9.68;;;9.10;68.60;;;;;;5071238;28;20048;-64
2022/04/18 00:09:10;;;;;;;14.25;8.95;;;9.10;68.80;;;;;;5071500;28;20059;-64
2022/04/18 00:11:36;;;;;;;14.30;8.93;;;9.00;69.00;;;;;;5071167;28;20120;-64
2022/04/18 00:14:03;;;;;;;14.25;8.90;;;9.00;69.80;;;;;;5069039;28;20475;-65
2022/04/18 00:16:28;;;;;;;15.73;8.98;;;9.00;70.40;;;;;;5070125;28;20131;-64
2022/04/18 00:18:54;;;;;;;14.63;9.25;;;8.90;70.20;;;;;;5069633;28;20182;-64
2022/04/18 00:21:20;;;;;;;13.35;9.20;;;8.80;70.30;;;;;;5071373;28;20082;-65
2022/04/18 00:23:46;;;;;;;14.93;9.60;;;8.80;70.70;;;;;;5071050;28;20044;-64
2022/04/18 00:26:12;;;;;;;13.73;9.20;;;8.80;71.40;;;;;;5069939;28;20118;-65
2022/04/18 00:28:38;;;;;;;14.93;9.60;;;8.80;71.50;;;;;;5069624;28;20084;-65
2022/04/18 00:31:04;;;;;;;15.45;10.00;;;8.70;71.50;;;;;;5071242;28;20203;-64
2022/04/18 00:33:31;;;;;;;12.70;9.15;;;8.70;72.20;;;;;;5070778;28;20090;-64
2022/04/18 00:35:57;;;;;;;15.65;9.95;;;8.60;72.10;;;;;;5070569;28;20109;-64
2022/04/18 00:38:23;;;;;;;15.98;9.95;;;8.60;72.00;;;;;;5069444;28;20061;-64
2022/04/18 00:40:49;;;;;;;13.98;8.98;;;8.60;72.10;;;;;;5070447;28;20133;-65
2022/04/18 00:43:15;;;;;;;16.83;10.27;;;8.60;72.60;;;;;;5069710;28;20489;-64
2022/04/18 00:45:41;;;;;;;12.95;9.25;;;8.50;72.80;;;;;;5070798;28;20102;-64
2022/04/18 00:48:07;;;;;;;15.38;9.50;;;8.50;73.00;;;;;;5071043;28;20386;-63
2022/04/18 00:50:34;;;;;;;16.10;10.27;;;8.50;73.60;;;;;;5069751;28;20127;-63
2022/04/18 00:53:01;;;;;;;15.20;9.73;;;8.40;73.90;;;;;;5070652;28;20045;-63
2022/04/18 00:55:28;;;;;;;16.52;10.20;;;8.40;73.60;;;;;;5070984;28;20048;-63
2022/04/18 00:57:55;;;;;;;13.60;9.05;;;8.40;74.00;;;;;;5068757;28;20379;-64
2022/04/18 01:00:22;;;;;;;12.68;8.85;;;8.30;74.20;;;;;;5070813;28;20052;-63
2022/04/18 01:02:48;;;;;;;15.52;10.02;;;8.30;74.30;;;;;;5070649;28;20136;-63
2022/04/18 01:05:13;;;;;;;14.75;10.30;;;8.30;74.70;;;;;;5069969;28;20402;-64
2022/04/18 01:07:40;;;;;;;14.77;10.05;;;8.30;75.00;;;;;;5070649;28;20052;-66
2022/04/18 01:10:07;;;;;;;16.65;10.70;;;8.30;75.20;;;;;;5070736;28;20045;-64
2022/04/18 01:12:33;;;;;;;16.58;9.65;;;8.20;76.80;;;;;;5069456;28;20055;-63
2022/04/18 01:14:59;;;;;;;15.35;10.00;;;8.10;75.70;;;;;;5070527;28;20055;-64
2022/04/18 01:17:26;;;;;;;16.42;9.73;;;8.10;76.90;;;;;;5070588;28;20079;-63
2022/04/18 01:19:52;;;;;;;15.82;10.45;;;8.10;76.20;;;;;;5069954;28;20036;-63
2022/04/18 01:22:19;;;;;;;14.05;9.65;;;8.10;76.20;;;;;;5070742;28;20036;-63
2022/04/18 01:30:15;;;;;;;14.95;9.73;;;8.00;77.70;;;;;;5069574;28;20063;-64
2022/04/18 01:32:41;;;;;;;14.90;10.07;;;8.00;78.00;;;;;;5070666;28;20040;-64
2022/04/18 01:35:06;;;;;;;16.27;10.25;;;7.90;78.00;;;;;;5069018;28;20161;-64
2022/04/18 01:37:32;;;;;;;14.38;10.32;;;7.90;78.10;;;;;;5070371;28;20056;-64
2022/04/18 01:39:58;;;;;;;16.33;10.55;;;7.90;78.60;;;;;;5069841;28;20132;-64
2022/04/18 01:42:24;;;;;;;16.02;9.63;;;7.80;78.90;;;;;;5070682;28;20041;-64
2022/04/18 01:44:49;;;;;;;16.73;10.95;;;7.80;80.10;;;;;;5069116;28;20471;-63
2022/04/18 01:47:15;;;;;;;18.27;11.10;;;7.80;80.20;;;;;;5069068;28;20047;-63
2022/04/18 01:49:41;;;;;;;14.52;10.07;;;7.80;80.30;;;;;;5069120;28;20076;-65
2022/04/18 01:52:06;;;;;;;16.38;9.88;;;7.70;80.40;;;;;;5070077;28;20075;-64
2022/04/18 01:54:32;;;;;;;18.35;10.98;;;7.70;80.80;;;;;;5069563;28;20044;-64
2022/04/18 01:56:58;;;;;;;17.88;11.27;;;7.70;82.70;;;;;;5070017;28;20549;-65
2022/04/18 01:59:24;;;;;;;15.18;10.60;;;7.60;81.50;;;;;;5068922;28;20098;-65
2022/04/18 02:01:50;;;;;;;15.88;10.05;;;7.60;82.60;;;;;;5068532;28;20051;-64
2022/04/18 02:04:15;;;;;;;17.85;10.68;;;7.60;82.60;;;;;;5070022;28;20052;-64
2022/04/18 02:06:41;;;;;;;15.50;10.85;;;7.50;83.30;;;;;;5069013;28;20052;-64
2022/04/18 02:09:07;;;;;;;17.25;10.77;;;7.50;83.30;;;;;;5069994;28;20037;-65
2022/04/18 02:11:32;;;;;;;17.55;11.23;;;7.40;84.40;;;;;;5073710;28;20049;-65
2022/04/18 02:13:58;;;;;;;18.33;11.13;;;7.40;83.90;;;;;;5073212;28;20040;-64
2022/04/18 02:16:24;;;;;;;18.27;11.25;;;7.40;84.40;;;;;;5072506;28;20069;-63
2022/04/18 02:18:50;;;;;;;18.60;11.43;;;7.40;85.10;;;;;;5072116;28;20041;-66
2022/04/18 02:21:17;;;;;;;14.55;10.98;;;7.40;84.60;;;;;;5072285;28;20049;-64
2022/04/18 02:23:43;;;;;;;18.02;10.95;;;7.40;85.10;;;;;;5055998;28;20440;-64
2022/04/18 02:26:09;;;;;;;19.23;11.65;;;7.40;85.70;;;;;;5072195;28;20040;-65
2022/04/18 02:28:35;;;;;;;21.13;12.25;;;7.30;85.70;;;;;;5073676;28;20081;-65
2022/04/18 02:31:01;;;;;;;18.00;11.50;;;7.30;86.40;;;;;;5055177;28;20055;-65
2022/04/18 02:33:28;;;;;;;16.92;10.70;;;7.30;87.10;;;;;;5072311;28;20102;-65
2022/04/18 02:35:54;;;;;;;18.20;11.43;;;7.30;87.40;;;;;;5073051;28;20052;-65
2022/04/18 02:38:19;;;;;;;17.65;11.57;;;7.20;87.60;;;;;;5071997;28;20062;-64
2022/04/18 02:40:46;;;;;;;17.30;10.70;;;7.20;88.70;;;;;;5073052;28;20079;-63
2022/04/18 02:43:14;;;;;;;17.13;11.35;;;7.20;88.00;;;;;;5072684;28;20040;-64
2022/04/18 02:45:40;;;;;;;18.55;12.00;;;7.20;87.90;;;;;;5072863;28;20508;-64
2022/04/18 02:48:06;;;;;;;18.30;10.73;;;7.20;88.70;;;;;;5072665;28;20040;-64
2022/04/18 02:50:32;;;;;;;18.83;11.00;;;7.10;89.10;;;;;;5072947;28;20033;-64
2022/04/18 02:52:57;;;;;;;16.90;10.50;;;7.10;88.80;;;;;;5072442;28;20062;-65
2022/04/18 02:55:25;;;;;;;19.58;11.85;;;7.10;89.40;;;;;;5071868;28;20049;-64
2022/04/18 02:57:51;;;;;;;17.15;11.25;;;7.10;89.70;;;;;;5073068;28;20083;-66
2022/04/18 03:00:17;;;;;;;19.52;11.35;;;7.00;90.10;;;;;;5071391;28;20052;-64
2022/04/18 03:02:43;;;;;;;15.27;10.52;;;7.10;90.00;;;;;;5072823;28;20135;-64
2022/04/18 03:05:11;;;;;;;16.92;10.80;;;7.00;90.50;;;;;;5071298;28;20055;-65
2022/04/18 03:07:37;;;;;;;16.98;11.10;;;7.00;90.40;;;;;;5072959;28;20075;-64
2022/04/18 03:10:04;;;;;;;19.17;11.57;;;7.00;90.60;;;;;;5072758;28;20339;-65
2022/04/18 03:12:30;;;;;;;17.15;10.45;;;7.00;90.80;;;;;;5072485;28;20409;-66
2022/04/18 03:14:55;;;;;;;15.95;10.20;;;7.00;90.60;;;;;;5072470;28;20048;-66
2022/04/18 03:17:21;;;;;;;15.68;10.25;;;6.90;90.90;;;;;;5072638;28;20090;-64
2022/04/18 03:19:47;;;;;;;17.40;10.43;;;6.90;91.20;;;;;;5072519;28;20091;-64
2022/04/18 03:22:13;;;;;;;16.75;10.77;;;6.90;91.20;;;;;;5071183;28;20040;-64
2022/04/18 03:24:39;;;;;;;17.05;9.98;;;6.90;91.90;;;;;;5071186;28;20044;-64
2022/04/18 03:27:05;;;;;;;16.45;10.27;;;6.90;91.60;;;;;;5072091;28;20452;-64
2022/04/18 03:29:31;;;;;;;18.17;10.48;;;6.90;91.40;;;;;;5072236;28;20088;-64
2022/04/18 03:31:58;;;;;;;15.05;10.15;;;6.90;91.50;;;;;;5072017;28;20052;-66
2022/04/18 03:34:24;;;;;;;15.73;10.55;;;6.90;91.50;;;;;;5072226;28;20461;-65
2022/04/18 03:39:50;;;;;;;17.20;11.52;;;6.80;92.00;;;;;;5070942;28;20054;-65
2022/04/18 03:42:18;;;;;;;16.13;9.73;;;6.70;92.80;;;;;;5070428;28;20048;-64
2022/04/18 03:44:46;;;;;;;14.60;10.15;;;6.70;92.20;;;;;;5072076;28;20392;-63
2022/04/18 03:47:13;;;;;;;16.63;10.75;;;6.70;92.20;;;;;;5071561;28;20083;-64
2022/04/18 03:49:40;;;;;;;17.30;10.20;;;6.70;93.00;;;;;;5070657;28;20048;-64
2022/04/18 03:52:06;;;;;;;16.25;10.70;;;6.60;93.20;;;;;;5071512;28;20530;-64
2022/04/18 03:54:34;;;;;;;16.08;10.32;;;6.60;93.80;;;;;;5071868;28;20090;-64
2022/04/18 03:57:01;;;;;;;17.95;10.55;;;6.60;93.00;;;;;;5070311;28;20091;-65
2022/04/18 03:59:27;;;;;;;17.38;10.02;;;6.60;93.00;;;;;;5071730;28;20410;-63
2022/04/18 04:01:52;;;;;;;15.48;10.18;;;6.60;93.30;;;;;;5070234;28;20044;-64
2022/04/18 04:04:18;;;;;;;16.70;9.80;;;6.50;93.20;;;;;;5053471;28;20052;-64
2022/04/18 04:06:44;;;;;;;16.70;10.23;;;6.50;93.60;;;;;;5071704;28;20040;-64
2022/04/18 04:09:09;;;;;;;17.35;9.93;;;6.50;94.40;;;;;;5069747;28;20056;-64
2022/04/18 04:11:35;;;;;;;15.77;10.27;;;6.50;93.90;;;;;;5071560;28;20113;-64
2022/04/18 04:14:01;;;;;;;15.25;10.35;;;6.50;93.80;;;;;;5070081;28;20048;-67
2022/04/18 04:16:26;;;;;;;17.00;10.43;;;6.80;94.30;;;;;;5069756;28;20052;-63
2022/04/18 04:18:52;;;;;;;15.77;10.25;;;6.50;94.20;;;;;;5070214;28;20486;-65
2022/04/18 04:21:18;;;;;;;14.82;9.90;;;6.50;94.20;;;;;;5053082;28;20041;-63
2022/04/18 04:23:43;;;;;;;17.08;10.27;;;6.50;94.50;;;;;;5070221;28;20135;-64
2022/04/18 04:26:09;;;;;;;15.45;9.32;;;6.50;94.80;;;;;;5069451;28;20101;-64
2022/04/18 04:28:35;;;;;;;14.05;9.77;;;6.40;94.60;;;;;;5070896;28;20045;-64
2022/04/18 04:31:04;;;;;;;13.82;9.45;;;6.50;95.10;;;;;;5070947;28;20044;-66
2022/04/18 04:33:32;;;;;;;16.40;10.18;;;6.20;95.10;;;;;;5070471;28;20044;-65
2022/04/18 04:35:58;;;;;;;14.75;10.27;;;6.40;95.20;;;;;;5069907;28;20460;-64
2022/04/18 04:38:25;;;;;;;16.10;10.20;;;6.40;96.50;;;;;;5069096;28;20145;-64
2022/04/18 04:40:51;;;;;;;13.38;9.07;;;6.40;96.00;;;;;;5069848;28;20047;-64
2022/04/18 04:43:16;;;;;;;14.65;10.13;;;6.40;96.00;;;;;;5052678;28;20048;-65
2022/04/18 04:45:42;;;;;;;14.68;8.88;;;6.50;96.10;;;;;;5053457;28;20049;-65
2022/04/18 04:48:08;;;;;;;12.75;8.98;;;6.50;96.80;;;;;;5070475;28;20044;-66
2022/04/18 04:50:34;;;;;;;14.50;10.00;;;6.50;96.60;;;;;;5070878;28;20535;-65
2022/04/18 04:53:00;;;;;;;16.63;10.00;;;6.60;96.70;;;;;;5069525;28;20094;-65
2022/04/18 04:55:27;;;;;;;17.13;10.07;;;6.60;97.00;;;;;;5069258;28;20053;-64
2022/04/18 04:57:53;;;;;;;17.27;10.07;;;6.60;97.10;;;;;;5070741;28;20048;-64
2022/04/18 05:00:19;;;;;;;14.65;10.35;;;6.70;97.20;;;;;;5069167;28;20123;-64
2022/04/18 05:02:45;;;;;;;13.70;9.18;;;6.70;98.20;;;;;;5069471;28;20048;-64
2022/04/18 05:05:11;;;;;;;18.45;10.27;;;6.70;98.10;;;;;;5052589;28;20052;-64
2022/04/18 05:07:37;;;;;;;13.65;9.45;;;6.70;98.50;;;;;;5070396;28;20466;-64
2022/04/18 05:10:04;;;;;;;14.75;9.27;;;6.80;98.60;;;;;;5069470;28;20121;-64
2022/04/18 05:12:31;;;;;;;16.63;10.32;;;6.80;98.90;;;;;;5068795;28;20044;-65
2022/04/18 05:15:04;;;;;;;16.13;10.65;;;6.90;99.40;;;;;;5070683;28;20056;-64
2022/04/18 05:17:30;;;;;;;14.60;8.27;;;6.80;99.70;;;;;;5069993;28;20478;-65
2022/04/18 05:19:56;;;;;;;16.48;9.32;;;6.90;99.50;;;;;;5052473;28;20557;-64
2022/04/18 05:22:22;;;;;;;15.90;9.85;;;6.90;99.70;;;;;;5052337;28;20045;-64
2022/04/18 05:24:48;;;;;;;14.40;9.35;;;7.00;99.50;;;;;;5069354;28;20052;-63
2022/04/18 05:27:15;;;;;;;14.98;9.60;;;7.10;99.50;;;;;;5068950;28;20048;-64
2022/04/18 05:29:44;;;;;;;11.82;8.48;;;7.20;99.70;;;;;;5069243;28;20052;-64
2022/04/18 05:32:10;;;;;;;15.68;8.35;;;7.70;99.90;;;;;;5069187;28;20097;-64
2022/04/18 05:34:36;;;;;;;13.50;7.88;;;8.40;98.20;;;;;;5070440;28;20086;-64
2022/04/18 05:37:02;;;;;;;14.40;8.88;;;9.20;97.40;;;;;;5069053;28;20060;-64
2022/04/18 05:39:28;;;;;;;14.52;9.32;;;10.00;95.40;;;;;;5068947;28;20082;-64
2022/04/18 05:41:56;;;;;;;12.23;9.13;;;10.80;94.00;;;;;;5070213;28;20401;-64
2022/04/18 05:44:22;;;;;;;13.48;8.95;;;11.50;90.30;;;;;;5070548;28;20075;-64
2022/04/18 05:46:48;;;;;;;15.73;9.13;;;12.00;89.80;;;;;;5074273;28;20048;-64
2022/04/18 05:49:14;;;;;;;13.00;9.38;;;12.50;90.30;;;;;;5073661;28;20085;-67
2022/04/18 05:51:40;;;;;;;14.35;8.95;;;12.90;85.90;;;;;;5074117;28;20131;-64
2022/04/18 05:54:06;;;;;;;13.25;8.73;;;13.50;83.00;;;;;;5072655;28;20040;-66
2022/04/18 05:56:32;;;;;;;11.80;8.32;;;13.80;79.60;;;;;;5072563;28;20048;-64
2022/04/18 05:58:58;;;;;;;13.52;8.98;;;14.30;79.80;;;;;;5074003;28;20649;-64
2022/04/18 06:01:24;;;;;;;15.75;9.13;;;14.80;76.90;;;;;;5072173;28;20052;-65
2022/04/18 06:03:49;;;;;;;12.25;8.68;;;15.30;78.30;;;;;;5072465;28;20044;-65
2022/04/18 06:06:16;;;;;;;11.30;8.02;;;15.70;76.20;;;;;;5073685;28;20127;-67
2022/04/18 06:08:42;;;;;;;11.18;8.07;;;15.80;73.50;;;;;;5073817;28;20055;-65
2022/04/18 06:11:08;;;;;;;11.45;8.52;;;15.90;72.80;;;;;;5073722;28;20048;-63
2022/04/18 06:13:33;;;;;;;10.68;6.93;;;15.80;69.70;;;;;;5071964;28;20055;-64
2022/04/18 06:15:59;;;;;;;12.95;7.65;;;15.90;69.60;;;;;;5072275;28;20346;-65
2022/04/18 06:18:26;;;;;;;11.43;7.82;;;15.90;69.90;;;;;;5055317;28;20094;-64
2022/04/18 06:20:52;;;;;;;9.57;7.43;;;16.10;70.50;;;;;;5073562;28;20417;-65
2022/04/18 06:23:18;;;;;;;12.30;7.70;;;16.30;69.50;;;;;;5054988;28;20088;-67
2022/04/18 06:25:44;;;;;;;10.65;7.70;;;16.50;69.50;;;;;;5038489;28;20516;-64
2022/04/18 06:28:12;;;;;;;11.10;7.78;;;16.40;68.30;;;;;;5072461;28;20080;-64
2022/04/18 06:30:38;;;;;;;11.93;8.00;;;16.70;67.90;;;;;;5072877;28;20507;-64
2022/04/18 06:33:04;;;;;;;12.00;8.20;;;16.80;66.50;;;;;;5055614;28;20056;-64
2022/04/18 06:35:30;;;;;;;11.38;8.40;;;17.20;66.90;;;;;;5072697;28;20131;-64
2022/04/18 06:37:56;;;;;;;13.07;8.25;;;17.50;65.60;;;;;;5073190;28;20480;-63
2022/04/18 06:40:21;;;;;;;11.48;7.65;;;17.90;65.30;;;;;;5071556;28;20083;-66
2022/04/18 06:42:47;;;;;;;10.55;7.28;;;17.90;65.10;;;;;;5071942;28;20041;-65
2022/04/18 06:45:13;;;;;;;12.52;6.95;;;18.30;65.20;;;;;;5071853;28;20136;-65
2022/04/18 06:47:39;;;;;;;11.25;7.68;;;18.80;64.20;;;;;;5072814;28;20045;-65
2022/04/18 06:50:11;;;;;;;8.82;7.38;;;18.90;63.90;;;;;;5071989;28;20048;-64
2022/04/18 06:52:41;;;;;;;10.52;7.63;;;18.90;61.70;;;;;;5072551;28;20083;-64
2022/04/18 06:55:08;;;;;;;9.23;7.00;;;19.20;62.40;;;;;;5070714;28;20486;-66
2022/04/18 06:57:34;;;;;;;10.65;7.95;;;19.10;61.10;;;;;;5070965;28;20509;-65
2022/04/18 07:00:00;;;;;;;10.85;7.85;;;19.10;61.10;;;;;;5073044;28;20055;-64
2022/04/18 07:02:26;;;;;;;10.02;6.70;;;19.20;61.60;;;;;;5071162;28;20044;-64
2022/04/18 07:04:53;;;;;;;11.52;8.10;;;19.50;61.00;;;;;;5071958;28;20390;-65
2022/04/18 07:07:18;;;;;;;10.27;7.80;;;19.50;60.80;;;;;;5071839;28;20041;-65
2022/04/18 07:09:44;;;;;;;10.77;7.82;;;19.40;60.30;;;;;;5071154;28;20581;-65
2022/04/18 07:12:10;;;;;;;10.05;7.57;;;19.60;60.20;;;;;;5071612;28;20143;-64
2022/04/18 07:14:36;;;;;;;9.80;7.68;;;20.10;60.70;;;;;;5054403;28;20056;-66
2022/04/18 07:17:03;;;;;;;9.63;7.50;;;20.20;60.00;;;;;;5072614;28;20044;-64
2022/04/18 07:19:28;;;;;;;11.48;8.68;;;20.50;59.70;;;;;;5072062;28;20055;-65
2022/04/18 07:21:55;;;;;;;10.23;7.25;;;20.60;59.10;;;;;;5071089;28;20036;-64
2022/04/18 07:24:22;;;;;;;9.60;7.68;;;20.90;59.60;;;;;;5071006;28;20080;-64
2022/04/18 07:26:48;;;;;;;10.82;7.80;;;21.10;58.50;;;;;;5072066;28;20103;-64
2022/04/18 07:29:14;;;;;;;9.60;6.95;;;20.90;59.00;;;;;;5072262;28;20052;-65
2022/04/18 07:31:40;;;;;;;10.38;7.63;;;20.90;58.90;;;;;;5070501;28;20127;-64
2022/04/18 07:34:05;;;;;;;11.75;8.10;;;21.00;58.50;;;;;;5070879;28;20059;-65
2022/04/18 07:36:31;;;;;;;10.20;7.78;;;21.10;57.80;;;;;;5071269;28;20526;-64
2022/04/18 07:38:57;;;;;;;8.95;7.20;;;21.40;57.60;;;;;;5054637;28;20062;-64
2022/04/18 07:41:24;;;;;;;9.57;7.07;;;21.90;58.00;;;;;;5054317;28;20460;-64
2022/04/18 07:43:51;;;;;;;10.32;7.63;;;22.30;57.70;;;;;;5070378;28;20040;-65
2022/04/18 07:46:17;;;;;;;9.20;7.30;;;22.50;57.00;;;;;;5072038;28;20129;-65
2022/04/18 07:48:45;;;;;;;10.02;6.88;;;22.60;56.70;;;;;;5070440;28;20063;-65
2022/04/18 07:53:55;;;;;;;11.55;7.38;;;22.80;55.30;;;;;;5071797;28;20059;-64
2022/04/18 07:56:21;;;;;;;9.40;6.78;;;22.70;56.40;;;;;;5053920;28;20052;-64
2022/04/18 07:58:47;;;;;;;9.52;7.38;;;23.00;55.90;;;;;;5070808;28;20048;-64
2022/04/18 08:01:13;;;;;;;10.13;7.15;;;23.00;54.50;;;;;;5071406;28;20045;-64
2022/04/18 08:03:39;;;;;;;8.85;6.40;;;23.10;54.50;;;;;;5069880;28;20044;-64
2022/04/18 08:06:05;;;;;;;12.02;7.25;;;23.20;55.00;;;;;;5071512;28;20052;-64
2022/04/18 08:08:32;;;;;;;10.50;6.82;;;23.20;55.20;;;;;;5070447;28;20047;-67
2022/04/18 08:10:58;;;;;;;9.82;6.90;;;23.00;55.10;;;;;;5071285;28;20040;-62
2022/04/18 08:13:24;;;;;;;10.52;6.95;;;23.20;54.80;;;;;;5053219;28;20367;-64
2022/04/18 08:15:50;;;;;;;9.10;6.82;;;23.30;55.20;;;;;;5036569;28;20048;-62
2022/04/18 08:18:15;;;;;;;7.55;6.70;;;23.70;54.50;;;;;;5070037;28;20110;-63
2022/04/18 08:20:41;;;;;;;8.55;6.97;;;23.90;54.50;;;;;;5036448;28;20067;-62
2022/04/18 08:23:07;;;;;;;8.82;7.10;;;24.30;54.30;;;;;;5070881;28;20051;-62
2022/04/18 08:25:33;;;;;;;9.80;6.40;;;24.50;53.90;;;;;;5070811;28;20052;-66
2022/04/18 08:27:58;;;;;;;9.10;7.03;;;24.70;53.20;;;;;;5070905;28;20045;-64
2022/04/18 08:30:24;;;;;;;9.32;6.18;;;24.90;52.80;;;;;;5069696;28;20063;-63
2022/04/18 08:32:50;;;;;;;9.00;6.95;;;24.70;52.70;;;;;;5069084;28;20044;-64
2022/04/18 08:35:16;;;;;;;8.48;6.72;;;24.60;52.50;;;;;;5069371;28;20506;-63
2022/04/18 08:37:42;;;;;;;8.65;6.45;;;24.60;51.40;;;;;;5068991;28;20059;-64
2022/04/18 08:40:14;;;;;;;8.02;6.15;;;24.90;52.30;;;;;;5070571;28;20044;-63
2022/04/18 08:42:41;;;;;;;8.82;6.85;;;25.20;52.30;;;;;;5070349;28;20098;-63
2022/04/18 08:45:09;;;;;;;8.45;7.03;;;25.30;52.20;;;;;;5070689;28;20052;-64
2022/04/18 08:53:28;;;;;;;7.95;6.53;;;25.80;51.40;;;;;;5070773;28;20464;-63
2022/04/18 08:55:54;;;;;;;11.48;6.38;;;25.80;51.70;;;;;;5069193;28;20052;-64
2022/04/18 08:58:23;;;;;;;8.70;6.32;;;25.50;50.80;;;;;;5069274;28;20665;-63
2022/04/18 09:00:50;;;;;;;9.77;6.50;;;25.50;51.50;;;;;;5069995;28;20044;-63
2022/04/18 09:03:16;;;;;;;8.35;6.28;;;25.20;51.40;;;;;;5070237;28;20056;-63
2022/04/18 09:05:42;;;;;;;9.02;6.90;;;25.10;51.40;;;;;;5069226;28;20044;-63
2022/04/18 09:08:09;;;;;;;8.25;6.55;;;24.90;51.50;;;;;;5070503;28;20044;-63
2022/04/18 09:10:36;;;;;;;8.63;6.65;;;25.10;52.70;;;;;;5068908;28;20102;-61
2022/04/18 09:13:04;;;;;;;7.93;6.53;;;25.40;51.90;;;;;;5052011;28;20048;-62
2022/04/18 09:15:37;;;;;;;10.93;6.72;;;25.50;51.70;;;;;;5068922;28;20052;-61
2022/04/18 09:18:07;;;;;;;9.82;6.75;;;25.50;51.90;;;;;;5069737;28;20048;-63
2022/04/18 09:20:44;;;;;;;8.23;6.50;;;25.30;51.40;;;;;;5072871;28;20190;-63
2022/04/18 09:23:20;;;;;;;8.48;6.50;;;25.60;51.40;;;;;;5074533;28;20213;-64
2022/04/18 09:25:50;;;;;;;8.63;6.50;;;25.50;51.30;;;;;;5072789;28;20047;-61
2022/04/18 09:28:16;;;;;;;9.32;6.68;;;25.20;51.70;;;;;;5073431;28;20053;-62
2022/04/18 09:30:42;;;;;;;19.85;7.78;;;25.00;51.80;;;;;;5056597;28;20040;-65
2022/04/18 09:33:08;;;;;;;8.55;6.85;;;25.30;51.50;;;;;;5073087;28;20054;-61
2022/04/18 09:35:35;;;;;;;9.13;6.47;;;24.40;51.40;;;;;;5074340;28;20055;-62
2022/04/18 09:38:11;;;;;;;9.15;6.38;;;23.90;51.60;;;;;;5073528;28;20687;-62
2022/04/18 09:40:37;;;;;;;10.80;6.38;;;23.10;52.10;;;;;;5074383;28;20106;-64
2022/04/18 09:43:03;;;;;;;10.43;7.22;;;22.60;52.90;;;;;;5073761;28;20367;-63
2022/04/18 09:45:29;;;;;;;9.25;7.10;;;22.50;53.40;;;;;;5074318;28;20047;-65
2022/04/18 09:48:01;;;;;;;9.73;6.90;;;22.00;53.50;;;;;;5072726;28;20371;-63
2022/04/18 09:53:22;;;;;;;12.80;7.22;;;21.50;54.80;;;;;;5072697;28;20060;-63
2022/04/18 09:55:51;;;;;;;9.82;6.53;;;21.20;54.90;;;;;;5072616;28;20052;-63
2022/04/18 09:58:16;;;;;;;10.20;6.53;;;21.00;55.60;;;;;;5073837;28;20347;-63
2022/04/18 10:00:42;;;;;;;8.82;6.63;;;21.00;55.30;;;;;;5073577;28;20059;-64
2022/04/18 10:03:09;;;;;;;8.52;7.03;;;20.70;55.40;;;;;;5072817;28;20056;-62
2022/04/18 10:05:35;;;;;;;8.55;6.65;;;20.40;55.60;;;;;;5072927;28;20110;-65
2022/04/18 10:08:05;;;;;;;9.68;7.07;;;20.40;56.00;;;;;;5072312;28;20040;-63
2022/04/18 10:10:41;;;;;;;9.35;6.75;;;20.30;56.70;;;;;;5056100;28;20044;-63
2022/04/18 10:13:07;;;;;;;10.68;6.82;;;20.30;56.50;;;;;;5072411;28;20123;-64
2022/04/18 10:15:37;;;;;;;9.90;6.35;;;20.50;56.20;;;;;;5073699;28;20053;-62
2022/04/18 10:18:05;;;;;;;8.88;7.22;;;20.50;56.10;;;;;;5055502;28;20063;-62
2022/04/18 10:21:07;;;;;;;10.57;7.07;;;20.40;56.20;;;;;;5073358;28;20040;-63
2022/04/18 10:23:46;;;;;;;8.43;6.45;;;20.20;57.30;;;;;;5074005;28;20045;-64
2022/04/18 10:26:43;;;;;;;10.00;6.93;;;20.20;56.70;;;;;;5073454;28;20070;-62
2022/04/18 10:29:14;;;;;;;8.63;6.50;;;20.30;57.20;;;;;;5072188;28;20708;-63
2022/04/18 10:31:42;;;;;;;8.77;6.50;;;20.40;56.20;;;;;;5072630;28;20128;-62
2022/04/18 10:34:11;;;;;;;8.50;6.13;;;20.50;56.20;;;;;;5073137;28;20049;-63
2022/04/18 10:36:50;;;;;;;9.15;6.63;;;20.50;56.40;;;;;;5073132;28;20406;-63
2022/04/18 10:39:16;;;;;;;10.15;6.30;;;20.60;56.20;;;;;;5071852;28;20106;-64
2022/04/18 10:41:47;;;;;;;8.80;5.80;;;20.60;56.60;;;;;;5071922;28;20044;-65
2022/04/18 10:44:17;;;;;;;7.10;5.63;;;20.60;55.40;;;;;;5055146;28;20058;-63
2022/04/18 10:46:51;;;;;;;7.20;5.20;;;20.60;55.60;;;;;;5073459;28;20087;-63
2022/04/18 10:49:23;;;;;;;7.95;6.22;;;20.50;54.60;;;;;;5072218;28;20155;-64
2022/04/18 10:51:51;;;;;;;8.88;6.22;;;20.30;55.20;;;;;;5073177;28;20045;-63
2022/04/18 10:54:20;;;;;;;6.10;4.78;;;20.20;54.70;;;;;;5072979;28;20052;-63
2022/04/18 10:57:01;;;;;;;4.90;3.25;;;20.20;53.70;;;;;;5072076;28;20508;-63
2022/04/18 10:59:28;;;;;;;5.15;3.05;;;20.20;51.90;;;;;;5072920;28;20044;-66
2022/04/18 11:01:56;;;;;;;5.95;3.70;;;20.30;50.40;;;;;;5072190;28;20490;-66
2022/04/18 11:04:53;;;;;;;5.40;3.45;;;20.30;51.40;;;;;;5072712;28;20087;-63
2022/04/18 11:07:19;;;;;;;3.88;2.60;;;20.30;50.80;;;;;;5060101;28;20052;-63
2022/04/18 11:09:46;;;;;;;4.80;2.97;;;20.30;49.20;;;;;;5054993;28;20105;-62
2022/04/18 11:12:13;;;;;;;4.75;3.10;;;20.30;48.80;;;;;;5072257;28;20121;-63
2022/04/18 11:14:51;;;;;;;5.45;3.35;;;20.30;49.00;;;;;;5071749;28;20060;-64
2022/04/18 11:17:38;;;;;;;7.40;4.78;;;20.40;49.80;;;;;;5071969;28;20131;-62
2022/04/18 11:20:32;;;;;;;6.00;4.55;;;20.30;50.50;;;;;;5072237;28;20076;-63
2022/04/18 11:23:33;;;;;;;6.57;4.45;;;20.30;50.90;;;;;;5070975;28;20055;-64
2022/04/18 11:26:01;;;;;;;5.97;4.47;;;20.40;51.10;;;;;;5009597;28;20423;-64
2022/04/18 11:28:41;;;;;;;6.55;4.30;;;20.40;50.90;;;;;;5055682;28;20060;-62
2022/04/18 11:31:09;;;;;;;6.32;3.75;;;20.30;50.40;;;;;;5070830;28;20052;-62
2022/04/18 11:33:42;;;;;;;5.90;3.78;;;20.30;50.60;;;;;;5072152;28;20048;-63
2022/04/18 11:36:09;;;;;;;4.78;3.58;;;20.40;50.60;;;;;;5053819;28;20064;-63
2022/04/18 11:38:35;;;;;;;6.18;3.58;;;20.50;50.70;;;;;;5072312;28;20056;-64
2022/04/18 11:41:12;;;;;;;6.13;4.93;;;20.60;50.00;;;;;;5070380;28;20102;-63
2022/04/18 11:43:37;;;;;;;5.75;3.72;;;20.80;51.20;;;;;;5072030;28;20040;-63
2022/04/18 11:46:06;;;;;;;6.25;3.75;;;20.70;50.00;;;;;;5070324;28;20055;-63
2022/04/18 11:48:32;;;;;;;7.68;4.22;;;20.60;49.20;;;;;;5071442;28;20049;-63
2022/04/18 11:50:57;;;;;;;5.78;3.97;;;20.60;49.10;;;;;;5071860;28;20552;-66
2022/04/18 11:53:34;;;;;;;5.75;4.18;;;20.50;49.90;;;;;;5070538;28;20048;-63
2022/04/18 11:56:03;;;;;;;5.97;4.13;;;20.40;50.20;;;;;;5071725;28;20047;-66
2022/04/18 11:58:35;;;;;;;5.60;4.65;;;20.40;50.50;;;;;;5071842;28;20052;-65
2022/04/18 12:06:45;;;;;;;7.13;4.30;;;20.50;50.40;;;;;;5070542;28;20151;-63
2022/04/18 12:09:13;;;;;;;5.25;3.95;;;20.40;50.30;;;;;;5070087;28;20184;-62
2022/04/18 12:11:40;;;;;;;6.30;4.40;;;20.40;50.20;;;;;;5071510;28;20044;-62
2022/04/18 12:14:05;;;;;;;6.45;3.90;;;20.30;50.60;;;;;;5053576;28;20055;-61
2022/04/18 12:16:36;;;;;;;5.75;3.97;;;20.30;49.80;;;;;;5071605;28;20044;-64
2022/04/18 12:19:02;;;;;;;6.40;4.28;;;20.20;50.20;;;;;;5071303;28;20101;-64
2022/04/18 12:21:28;;;;;;;6.70;4.13;;;20.20;50.60;;;;;;5071204;28;20040;-62
2022/04/18 12:24:00;;;;;;;6.95;4.03;;;20.30;50.70;;;;;;5071307;28;20041;-62
2022/04/18 12:26:31;;;;;;;9.43;4.82;;;20.50;50.90;;;;;;5071077;28;20048;-63
2022/04/18 12:29:10;;;;;;;5.70;4.32;;;20.50;50.70;;;;;;5070970;28;20131;-63
2022/04/18 12:31:40;;;;;;;6.68;4.40;;;20.50;50.10;;;;;;5071235;28;20055;-62
2022/04/18 12:34:06;;;;;;;6.82;4.40;;;20.50;51.00;;;;;;5071024;28;20045;-65
2022/04/18 12:36:36;;;;;;;7.35;4.22;;;20.50;50.60;;;;;;5069938;28;20048;-62
2022/04/18 12:39:03;;;;;;;7.93;4.18;;;20.50;50.60;;;;;;5070035;28;20052;-62
2022/04/18 12:41:33;;;;;;;6.10;3.85;;;20.50;50.40;;;;;;5052958;28;20049;-62
2022/04/18 12:43:59;;;;;;;6.00;3.97;;;20.50;50.40;;;;;;5071274;28;20044;-63
2022/04/18 12:46:30;;;;;;;5.47;3.90;;;20.60;50.30;;;;;;5069688;28;20063;-62
2022/04/18 12:48:56;;;;;;;7.72;4.45;;;20.50;50.00;;;;;;5054069;28;20454;-62
2022/04/18 12:51:52;;;;;;;5.50;4.00;;;20.30;50.30;;;;;;5070860;28;20048;-63
2022/04/18 12:54:19;;;;;;;6.07;4.30;;;20.20;50.50;;;;;;5056682;28;20063;-63
2022/04/18 12:56:49;;;;;;;5.90;3.78;;;20.20;50.80;;;;;;5070047;28;20048;-63
2022/04/18 12:59:25;;;;;;;6.20;4.32;;;20.20;50.90;;;;;;5070668;28;20127;-64
2022/04/18 13:01:51;;;;;;;5.65;3.83;;;20.20;50.00;;;;;;5070951;28;20111;-63
2022/04/18 13:04:22;;;;;;;5.88;4.20;;;20.30;50.30;;;;;;5070497;28;20040;-63
2022/04/18 13:07:03;;;;;;;6.82;3.83;;;20.30;49.90;;;;;;5070906;28;20390;-62
2022/04/18 13:09:30;;;;;;;6.05;3.80;;;20.10;49.80;;;;;;5070266;28;20040;-62
2022/04/18 13:12:04;;;;;;;5.95;4.03;;;20.00;50.40;;;;;;5069907;28;20063;-64